createdAt,value
2019-01-02T00:00:51.068Z,5.06
2019-01-02T00:01:51.050Z,5.10
2019-01-02T00:02:51.021Z,5.09
2019-01-02T00:03:51.002Z,5.03
2019-01-02T00:04:50.971Z,5.02
2019-01-02T00:05:50.957Z,5.02
2019-01-02T00:06:50.931Z,5.06
2019-01-02T00:07:50.906Z,5.09
2019-01-02T00:08:50.880Z,5.00
2019-01-02T00:09:50.862Z,4.99
2019-01-02T00:10:50.834Z,4.97
2019-01-02T00:11:50.809Z,4.92
2019-01-02T00:12:50.789Z,4.97
2019-01-02T00:13:50.766Z,4.89
2019-01-02T00:14:50.743Z,4.84
2019-01-02T00:15:50.770Z,4.91
2019-01-02T00:16:50.699Z,4.85
2019-01-02T00:17:50.677Z,4.84
2019-01-02T00:18:50.653Z,4.88
2019-01-02T00:19:50.632Z,4.85
2019-01-02T00:20:50.607Z,4.91
2019-01-02T00:21:50.585Z,4.82
2019-01-02T00:22:50.561Z,4.82
2019-01-02T00:23:50.533Z,4.77
2019-01-02T00:24:50.516Z,4.67
2019-01-02T00:25:50.492Z,4.77
2019-01-02T00:26:50.469Z,4.75
2019-01-02T00:27:50.450Z,4.78
2019-01-02T00:28:50.423Z,4.75
2019-01-02T00:29:50.398Z,4.75
2019-01-02T00:30:50.376Z,4.82
2019-01-02T00:31:50.355Z,4.85
2019-01-02T00:32:50.327Z,4.78
2019-01-02T00:33:50.303Z,4.80
2019-01-02T00:34:50.286Z,4.82
2019-01-02T00:35:50.262Z,4.78
2019-01-02T00:36:50.236Z,4.62
2019-01-02T00:37:50.213Z,4.62
2019-01-02T00:38:50.188Z,4.62
2019-01-02T00:39:50.171Z,4.54
2019-01-02T00:40:50.145Z,4.54
2019-01-02T00:41:50.123Z,4.72
2019-01-02T00:42:50.099Z,4.54
2019-01-02T00:43:50.073Z,4.65
2019-01-02T00:44:50.057Z,4.66
2019-01-02T00:45:50.033Z,4.63
2019-01-02T00:46:50.008Z,4.67
2019-01-02T00:47:49.980Z,4.66
2019-01-02T00:48:49.962Z,4.60
2019-01-02T00:49:49.938Z,4.69
2019-01-02T00:50:49.960Z,4.66
2019-01-02T00:51:49.889Z,4.67
2019-01-02T00:52:49.877Z,4.67
2019-01-02T00:53:49.844Z,4.67
2019-01-02T00:54:49.828Z,4.70
2019-01-02T00:55:49.799Z,4.60
2019-01-02T00:56:49.786Z,4.65
2019-01-02T00:57:49.756Z,4.55
2019-01-02T00:58:49.732Z,4.50
2019-01-02T00:59:49.706Z,4.45
2019-01-02T01:00:49.688Z,4.48
2019-01-02T01:01:49.660Z,4.54
2019-01-02T01:02:49.638Z,4.42
2019-01-02T01:03:49.617Z,4.47
2019-01-02T01:04:49.599Z,4.48
2019-01-02T01:05:49.567Z,4.52
2019-01-02T01:06:49.547Z,4.62
2019-01-02T01:07:49.520Z,4.67
2019-01-02T01:08:49.498Z,4.60
2019-01-02T01:09:49.476Z,4.62
2019-01-02T01:10:49.455Z,4.55
2019-01-02T01:11:49.436Z,4.58
2019-01-02T01:12:49.409Z,4.54
2019-01-02T01:13:49.382Z,4.65
2019-01-02T01:14:49.358Z,4.59
2019-01-02T01:15:49.340Z,4.50
2019-01-02T01:16:49.318Z,4.60
2019-01-02T01:17:49.288Z,4.55
2019-01-02T01:18:49.268Z,4.62
2019-01-02T01:19:49.246Z,4.55
2019-01-02T01:20:49.226Z,4.52
2019-01-02T01:21:49.198Z,4.59
2019-01-02T01:22:49.175Z,4.62
2019-01-02T01:23:49.155Z,4.62
2019-01-02T01:24:49.126Z,4.60
2019-01-02T01:25:49.107Z,4.55
2019-01-02T01:26:49.085Z,4.65
2019-01-02T01:27:49.061Z,4.72
2019-01-02T01:28:49.036Z,4.65
2019-01-02T01:29:49.010Z,4.63
2019-01-02T01:30:48.992Z,4.62
2019-01-02T01:31:48.967Z,4.60
2019-01-02T01:32:48.945Z,4.59
2019-01-02T01:33:48.916Z,4.58
2019-01-02T01:34:48.897Z,4.60
2019-01-02T01:35:48.875Z,4.62
2019-01-02T01:36:48.853Z,4.62
2019-01-02T01:37:48.828Z,4.47
2019-01-02T01:38:48.811Z,4.50
2019-01-02T01:39:48.780Z,4.48
2019-01-02T01:40:48.755Z,4.50
2019-01-02T01:41:48.737Z,4.50
2019-01-02T01:42:48.710Z,4.63
2019-01-02T01:43:48.691Z,4.62
2019-01-02T01:44:48.665Z,4.52
2019-01-02T01:45:48.645Z,4.51
2019-01-02T01:46:48.616Z,4.58
2019-01-02T01:47:48.596Z,4.58
2019-01-02T01:48:48.573Z,4.59
2019-01-02T01:49:48.553Z,4.47
2019-01-02T01:50:48.527Z,4.58
2019-01-02T01:51:48.507Z,4.55
2019-01-02T01:52:48.480Z,4.48
2019-01-02T01:53:48.464Z,4.51
2019-01-02T01:54:48.432Z,4.48
2019-01-02T01:55:48.406Z,4.47
2019-01-02T01:56:48.400Z,4.63
2019-01-02T01:57:48.364Z,4.52
2019-01-02T01:58:48.341Z,4.60
2019-01-02T01:59:48.323Z,4.48
2019-01-02T02:00:48.298Z,4.50
2019-01-02T02:01:48.277Z,4.50
2019-01-02T02:02:48.248Z,4.42
2019-01-02T02:03:48.232Z,4.44
2019-01-02T02:04:48.200Z,4.45
2019-01-02T02:05:48.177Z,4.45
2019-01-02T02:06:48.153Z,4.44
2019-01-02T02:07:48.132Z,4.36
2019-01-02T02:08:48.108Z,4.47
2019-01-02T02:09:48.088Z,4.50
2019-01-02T02:10:48.059Z,4.48
2019-01-02T02:11:48.043Z,4.44
2019-01-02T02:12:48.016Z,4.45
2019-01-02T02:13:47.994Z,4.45
2019-01-02T02:14:47.979Z,4.40
2019-01-02T02:15:47.949Z,4.44
2019-01-02T02:16:47.922Z,4.30
2019-01-02T02:17:47.898Z,4.30
2019-01-02T02:18:47.882Z,4.30
2019-01-02T02:19:47.857Z,4.40
2019-01-02T02:20:47.830Z,4.36
2019-01-02T02:21:47.806Z,4.37
2019-01-02T02:22:47.789Z,4.44
2019-01-02T02:23:47.761Z,4.42
2019-01-02T02:24:47.740Z,4.29
2019-01-02T02:25:47.718Z,4.44
2019-01-02T02:26:47.692Z,4.41
2019-01-02T02:27:47.671Z,4.45
2019-01-02T02:28:47.662Z,4.51
2019-01-02T02:29:47.632Z,4.44
2019-01-02T02:30:47.601Z,4.37
2019-01-02T02:31:47.573Z,4.36
2019-01-02T02:32:47.564Z,4.27
2019-01-02T02:33:47.527Z,4.30
2019-01-02T02:34:47.507Z,4.32
2019-01-02T02:35:47.485Z,4.29
2019-01-02T02:36:47.460Z,4.32
2019-01-02T02:37:47.435Z,4.32
2019-01-02T02:38:47.416Z,4.33
2019-01-02T02:39:47.391Z,4.34
2019-01-02T02:40:47.368Z,4.33
2019-01-02T02:41:47.346Z,4.36
2019-01-02T02:42:47.321Z,4.32
2019-01-02T02:43:47.301Z,4.30
2019-01-02T02:44:47.281Z,4.33
2019-01-02T02:45:47.251Z,4.37
2019-01-02T02:46:47.226Z,4.32
2019-01-02T02:47:47.206Z,4.22
2019-01-02T02:48:47.182Z,4.30
2019-01-02T02:49:47.160Z,4.42
2019-01-02T02:50:47.137Z,4.44
2019-01-02T02:51:47.112Z,4.48
2019-01-02T02:52:47.089Z,4.47
2019-01-02T02:53:47.062Z,4.37
2019-01-02T02:54:47.045Z,4.42
2019-01-02T02:55:47.015Z,4.47
2019-01-02T02:56:46.994Z,4.48
2019-01-02T02:57:46.974Z,4.41
2019-01-02T02:58:46.950Z,4.45
2019-01-02T02:59:46.927Z,4.44
2019-01-02T03:00:46.903Z,4.48
2019-01-02T03:01:46.881Z,4.54
2019-01-02T03:02:46.858Z,4.48
2019-01-02T03:03:46.831Z,4.60
2019-01-02T03:04:46.806Z,4.54
2019-01-02T03:05:46.785Z,4.59
2019-01-02T03:06:47.314Z,4.52
2019-01-02T03:07:46.738Z,4.67
2019-01-02T03:08:46.719Z,4.67
2019-01-02T03:09:46.690Z,4.70
2019-01-02T03:10:46.674Z,4.77
2019-01-02T03:11:46.661Z,4.78
2019-01-02T03:12:46.622Z,4.77
2019-01-02T03:13:46.601Z,4.78
2019-01-02T03:14:46.578Z,4.91
2019-01-02T03:15:46.553Z,4.85
2019-01-02T03:16:46.534Z,4.82
2019-01-02T03:17:46.510Z,4.77
2019-01-02T03:18:46.482Z,4.78
2019-01-02T03:19:46.458Z,4.78
2019-01-02T03:20:46.440Z,4.77
2019-01-02T03:21:46.420Z,4.75
2019-01-02T03:22:46.388Z,4.82
2019-01-02T03:23:46.367Z,4.89
2019-01-02T03:24:46.348Z,4.84
2019-01-02T03:25:46.322Z,4.88
2019-01-02T03:26:46.297Z,4.86
2019-01-02T03:27:46.286Z,4.85
2019-01-02T03:28:46.256Z,4.86
2019-01-02T03:29:46.234Z,4.78
2019-01-02T03:30:46.209Z,4.82
2019-01-02T03:31:46.182Z,4.78
2019-01-02T03:32:46.160Z,4.84
2019-01-02T03:33:46.144Z,4.88
2019-01-02T03:34:46.116Z,4.85
2019-01-02T03:35:46.088Z,4.80
2019-01-02T03:36:46.074Z,4.86
2019-01-02T03:37:46.046Z,4.84
2019-01-02T03:38:46.024Z,4.82
2019-01-02T03:39:46.000Z,4.78
2019-01-02T03:40:45.980Z,4.86
2019-01-02T03:41:45.956Z,4.91
2019-01-02T03:42:45.935Z,4.88
2019-01-02T03:43:45.906Z,4.84
2019-01-02T03:44:45.884Z,4.85
2019-01-02T03:45:45.864Z,4.92
2019-01-02T03:46:45.834Z,4.91
2019-01-02T03:47:45.816Z,4.91
2019-01-02T03:48:45.793Z,4.88
2019-01-02T03:49:45.770Z,4.92
2019-01-02T03:50:45.750Z,4.86
2019-01-02T03:51:45.722Z,4.91
2019-01-02T03:52:45.702Z,4.85
2019-01-02T03:53:45.682Z,4.86
2019-01-02T03:54:45.652Z,4.84
2019-01-02T03:55:45.633Z,4.89
2019-01-02T03:56:45.608Z,4.97
2019-01-02T03:57:45.587Z,4.99
2019-01-02T03:58:45.562Z,5.03
2019-01-02T03:59:45.538Z,5.02
2019-01-02T04:00:45.521Z,5.02
2019-01-02T04:01:45.493Z,4.99
2019-01-02T04:02:45.476Z,4.86
2019-01-02T04:03:45.473Z,4.97
2019-01-02T04:04:45.426Z,4.89
2019-01-02T04:05:45.402Z,4.82
2019-01-02T04:06:45.378Z,4.89
2019-01-02T04:07:45.352Z,4.89
2019-01-02T04:08:45.334Z,4.91
2019-01-02T04:09:45.318Z,4.94
2019-01-02T04:10:45.290Z,4.92
2019-01-02T04:11:45.265Z,4.92
2019-01-02T04:12:45.240Z,4.91
2019-01-02T04:13:45.214Z,4.88
2019-01-02T04:14:45.194Z,4.89
2019-01-02T04:15:45.174Z,4.91
2019-01-02T04:16:45.148Z,4.84
2019-01-02T04:17:45.126Z,4.84
2019-01-02T04:18:45.105Z,4.97
2019-01-02T04:19:45.082Z,5.00
2019-01-02T04:20:45.055Z,5.02
2019-01-02T04:21:45.039Z,4.97
2019-01-02T04:22:45.010Z,4.99
2019-01-02T04:23:44.988Z,5.03
2019-01-02T04:24:44.966Z,5.00
2019-01-02T04:25:44.943Z,5.02
2019-01-02T04:26:44.921Z,4.97
2019-01-02T04:27:44.893Z,5.09
2019-01-02T04:28:44.877Z,4.94
2019-01-02T04:29:44.850Z,5.03
2019-01-02T04:30:44.824Z,4.96
2019-01-02T04:31:44.808Z,4.84
2019-01-02T04:32:44.782Z,4.97
2019-01-02T04:33:44.761Z,4.92
2019-01-02T04:34:44.742Z,4.89
2019-01-02T04:35:44.710Z,4.96
2019-01-02T04:36:44.688Z,4.91
2019-01-02T04:37:44.673Z,4.88
2019-01-02T04:38:44.646Z,4.92
2019-01-02T04:39:44.620Z,4.92
2019-01-02T04:40:44.597Z,4.82
2019-01-02T04:41:44.576Z,4.63
2019-01-02T04:42:44.552Z,4.66
2019-01-02T04:43:44.536Z,4.60
2019-01-02T04:44:44.506Z,4.62
2019-01-02T04:45:44.483Z,4.47
2019-01-02T04:46:44.460Z,4.51
2019-01-02T04:47:44.440Z,4.48
2019-01-02T04:48:44.416Z,4.52
2019-01-02T04:49:44.394Z,4.44
2019-01-02T04:50:44.373Z,4.48
2019-01-02T04:51:44.348Z,4.45
2019-01-02T04:52:44.324Z,4.45
2019-01-02T04:53:44.300Z,4.50
2019-01-02T04:54:44.276Z,4.48
2019-01-02T04:55:44.257Z,4.51
2019-01-02T04:56:44.234Z,4.58
2019-01-02T04:57:44.214Z,4.59
2019-01-02T04:58:44.181Z,4.55
2019-01-02T04:59:44.162Z,4.63
2019-01-02T05:00:44.139Z,4.72
2019-01-02T05:01:44.118Z,4.54
2019-01-02T05:02:44.099Z,4.72
2019-01-02T05:03:44.070Z,4.59
2019-01-02T05:04:44.046Z,4.63
2019-01-02T05:05:44.027Z,4.60
2019-01-02T05:06:44.002Z,4.48
2019-01-02T05:07:43.980Z,4.52
2019-01-02T05:08:43.957Z,4.52
2019-01-02T05:09:43.931Z,4.54
2019-01-02T05:10:43.916Z,4.54
2019-01-02T05:11:43.886Z,4.70
2019-01-02T05:12:43.868Z,4.66
2019-01-02T05:13:43.842Z,4.67
2019-01-02T05:14:43.813Z,4.65
2019-01-02T05:15:43.794Z,4.62
2019-01-02T05:16:43.774Z,4.67
2019-01-02T05:17:43.749Z,4.69
2019-01-02T05:18:43.731Z,4.73
2019-01-02T05:19:43.703Z,4.75
2019-01-02T05:20:43.679Z,4.69
2019-01-02T05:21:43.657Z,4.72
2019-01-02T05:22:43.630Z,4.70
2019-01-02T05:23:43.607Z,4.66
2019-01-02T05:24:43.587Z,4.67
2019-01-02T05:25:43.564Z,4.75
2019-01-02T05:26:43.545Z,4.78
2019-01-02T05:27:43.521Z,4.82
2019-01-02T05:28:43.495Z,4.77
2019-01-02T05:29:43.471Z,4.82
2019-01-02T05:30:43.454Z,4.89
2019-01-02T05:31:43.426Z,4.75
2019-01-02T05:32:43.402Z,4.80
2019-01-02T05:33:43.385Z,4.85
2019-01-02T05:34:43.355Z,4.84
2019-01-02T05:35:43.339Z,4.84
2019-01-02T05:36:43.309Z,4.80
2019-01-02T05:37:43.288Z,4.78
2019-01-02T05:38:43.263Z,4.75
2019-01-02T05:39:43.243Z,4.65
2019-01-02T05:40:43.217Z,4.67
2019-01-02T05:41:43.195Z,4.67
2019-01-02T05:42:43.171Z,4.66
2019-01-02T05:43:43.153Z,4.63
2019-01-02T05:44:43.134Z,4.63
2019-01-02T05:45:43.106Z,4.63
2019-01-02T05:46:43.079Z,4.60
2019-01-02T05:47:43.060Z,4.59
2019-01-02T05:48:43.032Z,4.51
2019-01-02T05:49:43.009Z,4.51
2019-01-02T05:50:42.989Z,4.50
2019-01-02T05:51:42.964Z,4.44
2019-01-02T05:52:42.944Z,4.48
2019-01-02T05:53:42.919Z,4.44
2019-01-02T05:54:42.897Z,4.45
2019-01-02T05:55:42.872Z,4.41
2019-01-02T05:56:42.851Z,4.50
2019-01-02T05:57:42.833Z,4.48
2019-01-02T05:58:42.855Z,4.44
2019-01-02T05:59:42.787Z,4.44
2019-01-02T06:00:42.756Z,4.47
2019-01-02T06:01:42.737Z,4.37
2019-01-02T06:02:42.709Z,4.41
2019-01-02T06:03:42.686Z,4.44
2019-01-02T06:04:42.667Z,4.48
2019-01-02T06:05:42.647Z,4.47
2019-01-02T06:06:42.621Z,4.47
2019-01-02T06:07:42.597Z,4.45
2019-01-02T06:08:42.575Z,4.45
2019-01-02T06:09:42.552Z,4.50
2019-01-02T06:10:42.530Z,4.47
2019-01-02T06:11:42.508Z,4.52
2019-01-02T06:12:42.482Z,4.62
2019-01-02T06:13:42.468Z,4.55
2019-01-02T06:14:42.442Z,4.66
2019-01-02T06:15:42.416Z,4.67
2019-01-02T06:16:42.399Z,4.52
2019-01-02T06:17:42.379Z,4.60
2019-01-02T06:18:42.342Z,4.52
2019-01-02T06:19:42.322Z,4.51
2019-01-02T06:20:42.302Z,4.44
2019-01-02T06:21:42.283Z,4.45
2019-01-02T06:22:42.256Z,4.40
2019-01-02T06:23:42.235Z,4.37
2019-01-02T06:24:42.206Z,4.30
2019-01-02T06:25:42.190Z,4.40
2019-01-02T06:26:42.163Z,4.30
2019-01-02T06:27:42.141Z,4.36
2019-01-02T06:28:42.119Z,4.30
2019-01-02T06:29:42.097Z,4.36
2019-01-02T06:30:42.073Z,4.40
2019-01-02T06:31:42.045Z,4.44
2019-01-02T06:32:42.025Z,4.50
2019-01-02T06:33:42.002Z,4.44
2019-01-02T06:34:41.977Z,4.45
2019-01-02T06:35:41.955Z,4.52
2019-01-02T06:36:41.937Z,4.47
2019-01-02T06:37:41.912Z,4.63
2019-01-02T06:38:41.887Z,4.66
2019-01-02T06:39:41.861Z,4.66
2019-01-02T06:40:41.843Z,4.52
2019-01-02T06:41:41.818Z,4.60
2019-01-02T06:42:41.800Z,4.62
2019-01-02T06:43:41.773Z,4.52
2019-01-02T06:44:41.752Z,4.52
2019-01-02T06:45:41.727Z,4.50
2019-01-02T06:46:41.703Z,4.45
2019-01-02T06:47:41.682Z,4.44
2019-01-02T06:48:41.655Z,4.33
2019-01-02T06:49:41.633Z,4.30
2019-01-02T06:50:41.607Z,4.32
2019-01-02T06:51:41.591Z,4.30
2019-01-02T06:52:41.561Z,4.33
2019-01-02T06:53:41.542Z,4.32
2019-01-02T06:54:41.517Z,4.33
2019-01-02T06:55:41.493Z,4.24
2019-01-02T06:56:41.469Z,4.34
2019-01-02T06:57:41.452Z,4.34
2019-01-02T06:58:41.425Z,4.33
2019-01-02T06:59:41.402Z,4.29
2019-01-02T07:00:41.383Z,4.37
2019-01-02T07:01:41.362Z,4.30
2019-01-02T07:02:41.332Z,4.32
2019-01-02T07:03:41.315Z,4.27
2019-01-02T07:04:41.287Z,4.29
2019-01-02T07:05:41.264Z,4.36
2019-01-02T07:06:41.257Z,4.30
2019-01-02T07:07:41.218Z,4.36
2019-01-02T07:08:41.209Z,4.37
2019-01-02T07:09:41.169Z,4.37
2019-01-02T07:10:41.151Z,4.40
2019-01-02T07:11:41.126Z,4.41
2019-01-02T07:12:41.111Z,4.44
2019-01-02T07:13:41.077Z,4.40
2019-01-02T07:14:41.055Z,4.36
2019-01-02T07:15:41.035Z,4.34
2019-01-02T07:16:41.012Z,4.23
2019-01-02T07:17:40.991Z,4.29
2019-01-02T07:18:40.966Z,4.16
2019-01-02T07:19:40.947Z,4.14
2019-01-02T07:20:40.923Z,4.02
2019-01-02T07:21:40.896Z,4.05
2019-01-02T07:22:40.877Z,4.02
2019-01-02T07:23:40.847Z,3.94
2019-01-02T07:24:40.825Z,4.00
2019-01-02T07:25:40.803Z,3.98
2019-01-02T07:26:40.781Z,3.97
2019-01-02T07:27:40.755Z,3.86
2019-01-02T07:28:40.738Z,3.80
2019-01-02T07:29:40.713Z,3.75
2019-01-02T07:30:40.691Z,3.91
2019-01-02T07:31:40.665Z,3.84
2019-01-02T07:32:40.650Z,3.79
2019-01-02T07:33:40.620Z,3.80
2019-01-02T07:34:40.895Z,3.84
2019-01-02T07:35:40.573Z,3.84
2019-01-02T07:36:40.557Z,3.65
2019-01-02T07:37:40.525Z,3.68
2019-01-02T07:38:40.568Z,3.69
2019-01-02T07:39:40.493Z,3.68
2019-01-02T07:40:40.457Z,3.61
2019-01-02T07:41:40.439Z,3.66
2019-01-02T07:42:40.461Z,3.66
2019-01-02T07:43:40.389Z,3.66
2019-01-02T07:44:40.367Z,3.69
2019-01-02T07:45:40.345Z,3.69
2019-01-02T07:46:40.317Z,3.66
2019-01-02T07:47:40.296Z,3.69
2019-01-02T07:48:40.272Z,3.66
2019-01-02T07:49:40.249Z,3.75
2019-01-02T07:50:40.230Z,3.80
2019-01-02T07:51:40.203Z,3.75
2019-01-02T07:52:40.187Z,3.72
2019-01-02T07:53:40.160Z,3.65
2019-01-02T07:54:40.134Z,3.72
2019-01-02T07:55:40.115Z,3.79
2019-01-02T07:56:40.088Z,3.72
2019-01-02T07:57:40.065Z,3.79
2019-01-02T07:58:40.048Z,3.75
2019-01-02T07:59:40.015Z,3.83
2019-01-02T08:00:39.992Z,3.87
2019-01-02T08:01:39.973Z,3.79
2019-01-02T08:02:39.955Z,3.86
2019-01-02T08:03:39.925Z,3.87
2019-01-02T08:04:39.908Z,3.75
2019-01-02T08:05:39.878Z,3.79
2019-01-02T08:06:39.854Z,3.88
2019-01-02T08:07:39.828Z,3.90
2019-01-02T08:08:39.811Z,3.87
2019-01-02T08:09:39.789Z,3.97
2019-01-02T08:10:39.760Z,4.05
2019-01-02T08:11:39.740Z,4.08
2019-01-02T08:12:39.714Z,4.16
2019-01-02T08:13:40.947Z,4.14
2019-01-02T08:14:39.674Z,4.16
2019-01-02T08:15:39.647Z,4.18
2019-01-02T08:16:39.626Z,4.24
2019-01-02T08:17:39.597Z,4.27
2019-01-02T08:18:39.579Z,4.29
2019-01-02T08:19:39.554Z,4.29
2019-01-02T08:20:39.534Z,4.33
2019-01-02T08:21:39.510Z,4.34
2019-01-02T08:22:39.486Z,4.32
2019-01-02T08:23:39.458Z,4.30
2019-01-02T08:24:39.449Z,4.06
2019-01-02T08:25:39.414Z,4.04
2019-01-02T08:26:39.392Z,3.84
2019-01-02T08:27:39.368Z,3.83
2019-01-02T08:28:39.343Z,3.65
2019-01-02T08:29:39.321Z,3.66
2019-01-02T08:30:39.304Z,3.54
2019-01-02T08:31:39.278Z,3.42
2019-01-02T08:32:39.259Z,3.36
2019-01-02T08:33:39.230Z,3.40
2019-01-02T08:34:39.208Z,3.26
2019-01-02T08:35:39.186Z,3.29
2019-01-02T08:36:39.159Z,3.28
2019-01-02T08:37:39.138Z,3.31
2019-01-02T08:38:39.115Z,3.15
2019-01-02T08:39:39.094Z,3.21
2019-01-02T08:40:39.070Z,3.18
2019-01-02T08:41:39.048Z,3.08
2019-01-02T08:42:39.022Z,3.11
2019-01-02T08:43:38.999Z,3.15
2019-01-02T08:44:38.976Z,3.05
2019-01-02T08:45:38.956Z,3.03
2019-01-02T08:46:38.930Z,3.02
2019-01-02T08:47:38.909Z,3.05
2019-01-02T08:48:38.881Z,3.02
2019-01-02T08:49:38.857Z,3.03
2019-01-02T08:50:38.844Z,3.06
2019-01-02T08:51:38.812Z,3.06
2019-01-02T08:52:38.789Z,2.97
2019-01-02T08:53:38.769Z,2.90
2019-01-02T08:54:38.744Z,2.90
2019-01-02T08:55:38.723Z,2.77
2019-01-02T08:56:38.695Z,2.78
2019-01-02T08:57:38.675Z,2.79
2019-01-02T08:58:38.651Z,2.75
2019-01-02T08:59:38.624Z,2.74
2019-01-02T09:00:38.604Z,2.92
2019-01-02T09:01:38.579Z,2.81
2019-01-02T09:02:38.558Z,2.78
2019-01-02T09:03:38.532Z,2.89
2019-01-02T09:04:38.520Z,2.85
2019-01-02T09:05:38.489Z,2.85
2019-01-02T09:06:38.463Z,2.87
2019-01-02T09:07:38.440Z,2.89
2019-01-02T09:08:38.416Z,2.81
2019-01-02T09:09:38.393Z,2.78
2019-01-02T09:10:38.370Z,2.81
2019-01-02T09:11:38.345Z,2.74
2019-01-02T09:12:38.322Z,2.85
2019-01-02T09:13:38.300Z,2.82
2019-01-02T09:14:38.299Z,2.87
2019-01-02T09:15:38.256Z,2.85
2019-01-02T09:16:38.230Z,2.93
2019-01-02T09:17:38.221Z,2.99
2019-01-02T09:18:38.185Z,3.05
2019-01-02T09:19:38.160Z,3.03
2019-01-02T09:20:38.135Z,3.20
2019-01-02T09:21:38.115Z,3.20
2019-01-02T09:22:38.088Z,3.35
2019-01-02T09:23:38.065Z,3.36
2019-01-02T09:24:38.044Z,3.40
2019-01-02T09:25:38.023Z,3.40
2019-01-02T09:26:37.995Z,3.45
2019-01-02T09:27:37.973Z,3.42
2019-01-02T09:28:37.951Z,3.52
2019-01-02T09:29:37.938Z,3.50
2019-01-02T09:30:37.906Z,3.45
2019-01-02T09:31:37.883Z,3.47
2019-01-02T09:32:37.859Z,3.48
2019-01-02T09:33:37.832Z,3.48
2019-01-02T09:34:37.811Z,3.50
2019-01-02T09:35:37.788Z,3.42
2019-01-02T09:36:37.771Z,3.48
2019-01-02T09:37:37.744Z,3.45
2019-01-02T09:38:37.720Z,3.45
2019-01-02T09:39:37.693Z,3.48
2019-01-02T09:40:37.699Z,3.48
2019-01-02T09:41:37.649Z,3.48
2019-01-02T09:42:37.626Z,3.42
2019-01-02T09:43:37.608Z,3.48
2019-01-02T09:44:37.593Z,3.40
2019-01-02T09:45:37.555Z,3.39
2019-01-02T09:46:37.533Z,3.42
2019-01-02T09:47:37.509Z,3.40
2019-01-02T09:48:37.499Z,3.43
2019-01-02T09:49:37.559Z,3.52
2019-01-02T09:50:37.444Z,3.45
2019-01-02T09:51:37.420Z,3.47
2019-01-02T09:52:37.392Z,3.47
2019-01-02T09:53:37.368Z,3.47
2019-01-02T09:54:37.345Z,3.42
2019-01-02T09:55:37.323Z,3.40
2019-01-02T09:56:37.302Z,3.40
2019-01-02T09:57:37.277Z,3.40
2019-01-02T09:58:37.253Z,3.39
2019-01-02T09:59:37.231Z,3.42
2019-01-02T10:00:37.207Z,3.42
2019-01-02T10:01:37.183Z,3.43
2019-01-02T10:02:37.159Z,3.55
2019-01-02T10:03:37.134Z,3.57
2019-01-02T10:04:37.112Z,3.61
2019-01-02T10:05:37.093Z,3.62
2019-01-02T10:06:37.075Z,3.62
2019-01-02T10:07:37.070Z,3.75
2019-01-02T10:08:37.027Z,3.68
2019-01-02T10:09:36.994Z,3.68
2019-01-02T10:10:36.972Z,3.69
2019-01-02T10:11:36.956Z,3.62
2019-01-02T10:12:36.930Z,3.72
2019-01-02T10:13:36.906Z,3.78
2019-01-02T10:14:36.887Z,3.79
2019-01-02T10:15:36.859Z,3.93
2019-01-02T10:16:36.836Z,3.88
2019-01-02T10:17:36.810Z,3.97
2019-01-02T10:18:36.790Z,4.05
2019-01-02T10:19:36.764Z,4.20
2019-01-02T10:20:36.757Z,4.32
2019-01-02T10:21:36.720Z,4.30
2019-01-02T10:22:36.706Z,4.30
2019-01-02T10:23:36.672Z,4.36
2019-01-02T10:24:36.658Z,4.27
2019-01-02T10:25:36.627Z,4.42
2019-01-02T10:26:36.610Z,4.51
2019-01-02T10:27:36.582Z,4.51
2019-01-02T10:28:36.562Z,4.78
2019-01-02T10:29:36.538Z,5.51
2019-01-02T10:30:36.511Z,5.99
2019-01-02T10:31:36.495Z,6.61
2019-01-02T10:32:36.470Z,7.09
2019-01-02T10:33:36.445Z,7.13
2019-01-02T10:34:36.423Z,6.73
2019-01-02T10:35:36.402Z,6.54
2019-01-02T10:36:36.380Z,6.17
2019-01-02T10:37:36.354Z,6.11
2019-01-02T10:38:36.330Z,6.06
2019-01-02T10:39:36.312Z,5.85
2019-01-02T10:40:36.286Z,5.74
2019-01-02T10:41:36.266Z,5.64
2019-01-02T10:42:36.242Z,5.61
2019-01-02T10:43:36.220Z,5.63
2019-01-02T10:44:36.196Z,5.56
2019-01-02T10:45:36.171Z,5.39
2019-01-02T10:46:36.153Z,5.36
2019-01-02T10:47:36.128Z,5.57
2019-01-02T10:48:36.108Z,5.57
2019-01-02T10:49:36.097Z,5.46
2019-01-02T10:50:36.065Z,5.48
2019-01-02T10:51:36.040Z,5.54
2019-01-02T10:52:36.019Z,5.51
2019-01-02T10:53:35.996Z,5.58
2019-01-02T10:54:35.975Z,5.56
2019-01-02T10:55:35.950Z,5.39
2019-01-02T10:56:35.936Z,5.51
2019-01-02T10:57:35.907Z,5.64
2019-01-02T10:58:36.680Z,5.64
2019-01-02T10:59:35.861Z,5.64
2019-01-02T11:00:35.842Z,5.60
2019-01-02T11:01:35.819Z,5.61
2019-01-02T11:02:35.798Z,5.58
2019-01-02T11:03:35.770Z,5.65
2019-01-02T11:04:35.754Z,5.57
2019-01-02T11:05:35.732Z,5.53
2019-01-02T11:06:35.706Z,5.60
2019-01-02T11:07:35.688Z,5.48
2019-01-02T11:08:35.667Z,5.57
2019-01-02T11:09:35.640Z,5.51
2019-01-02T11:10:35.626Z,5.60
2019-01-02T11:11:35.596Z,5.51
2019-01-02T11:12:35.578Z,5.49
2019-01-02T11:13:35.554Z,5.39
2019-01-02T11:14:35.533Z,5.36
2019-01-02T11:15:35.510Z,5.39
2019-01-02T11:16:35.488Z,5.39
2019-01-02T11:17:35.466Z,5.53
2019-01-02T11:18:35.444Z,5.65
2019-01-02T11:19:35.420Z,5.82
2019-01-02T11:20:35.404Z,5.82
2019-01-02T11:21:35.380Z,5.82
2019-01-02T11:22:35.357Z,5.83
2019-01-02T11:23:35.333Z,5.78
2019-01-02T11:24:35.314Z,5.81
2019-01-02T11:25:35.290Z,5.96
2019-01-02T11:27:35.249Z,6.00
2019-01-02T11:28:35.224Z,6.15
2019-01-02T11:29:35.202Z,6.36
2019-01-02T11:30:35.182Z,6.40
2019-01-02T11:31:35.160Z,6.49
2019-01-02T11:32:35.138Z,6.52
2019-01-02T11:33:35.115Z,6.69
2019-01-02T11:34:35.095Z,6.73
2019-01-02T11:35:35.074Z,6.71
2019-01-02T11:36:35.051Z,6.84
2019-01-02T11:37:35.036Z,6.85
2019-01-02T11:38:35.006Z,6.97
2019-01-02T11:39:34.982Z,6.95
2019-01-02T11:40:34.961Z,7.02
2019-01-02T11:41:34.939Z,7.07
2019-01-02T11:42:34.919Z,7.16
2019-01-02T11:43:34.897Z,7.28
2019-01-02T11:44:34.872Z,7.23
2019-01-02T11:45:34.852Z,7.13
2019-01-02T11:46:34.836Z,7.24
2019-01-02T11:47:34.810Z,7.24
2019-01-02T11:48:34.789Z,7.07
2019-01-02T11:49:34.770Z,7.13
2019-01-02T11:50:34.756Z,6.98
2019-01-02T11:51:34.719Z,6.95
2019-01-02T11:52:34.700Z,6.97
2019-01-02T11:53:34.678Z,6.99
2019-01-02T11:54:34.660Z,7.03
2019-01-02T11:55:34.644Z,7.07
2019-01-02T11:56:34.613Z,7.10
2019-01-02T11:57:34.594Z,7.12
2019-01-02T11:58:34.568Z,7.16
2019-01-02T11:59:34.547Z,6.87
2019-01-02T12:00:34.527Z,6.71
2019-01-02T12:01:34.510Z,6.55
2019-01-02T12:02:34.482Z,6.46
2019-01-02T12:03:34.461Z,6.44
2019-01-02T12:04:34.439Z,6.52
2019-01-02T12:05:34.419Z,6.56
2019-01-02T12:06:34.394Z,6.67
2019-01-02T12:07:35.064Z,6.91
2019-01-02T12:08:34.352Z,6.91
2019-01-02T12:09:34.333Z,6.99
2019-01-02T12:10:34.309Z,7.05
2019-01-02T12:11:34.291Z,6.98
2019-01-02T12:12:34.265Z,6.91
2019-01-02T12:13:34.249Z,6.85
2019-01-02T12:14:34.225Z,6.73
2019-01-02T12:15:34.207Z,6.64
2019-01-02T12:16:34.183Z,6.52
2019-01-02T12:17:34.161Z,6.54
2019-01-02T12:18:34.140Z,6.54
2019-01-02T12:19:34.123Z,6.67
2019-01-02T12:20:34.099Z,6.87
2019-01-02T12:21:34.077Z,6.84
2019-01-02T12:22:34.051Z,6.99
2019-01-02T12:23:34.035Z,6.87
2019-01-02T12:24:34.014Z,6.99
2019-01-02T12:25:33.985Z,6.91
2019-01-02T12:26:33.971Z,6.99
2019-01-02T12:27:33.942Z,6.95
2019-01-02T12:28:33.925Z,7.02
2019-01-02T12:29:33.911Z,6.97
2019-01-02T12:30:33.876Z,6.95
2019-01-02T12:31:33.857Z,6.95
2019-01-02T12:32:33.835Z,6.95
2019-01-02T12:33:33.815Z,7.02
2019-01-02T12:34:33.797Z,6.97
2019-01-02T12:35:33.770Z,6.97
2019-01-02T12:36:33.751Z,7.05
2019-01-02T12:37:33.730Z,7.15
2019-01-02T12:38:33.707Z,7.20
2019-01-02T12:39:33.685Z,7.03
2019-01-02T12:40:33.657Z,7.06
2019-01-02T12:41:33.643Z,7.09
2019-01-02T12:42:33.617Z,7.03
2019-01-02T12:43:33.598Z,6.88
2019-01-02T12:44:33.579Z,6.88
2019-01-02T12:45:33.552Z,6.91
2019-01-02T12:46:33.530Z,6.87
2019-01-02T12:47:33.509Z,6.92
2019-01-02T12:48:33.492Z,6.97
2019-01-02T12:49:33.470Z,7.02
2019-01-02T12:50:33.451Z,6.92
2019-01-02T12:51:33.426Z,6.97
2019-01-02T12:52:33.405Z,6.99
2019-01-02T12:53:33.394Z,6.99
2019-01-02T12:54:33.358Z,6.97
2019-01-02T12:55:33.337Z,6.91
2019-01-02T12:56:33.315Z,6.69
2019-01-02T12:57:33.294Z,6.74
2019-01-02T12:58:33.274Z,6.73
2019-01-02T12:59:33.247Z,6.67
2019-01-02T13:00:33.228Z,6.73
2019-01-02T13:01:33.208Z,6.66
2019-01-02T13:02:33.188Z,6.71
2019-01-02T13:03:33.166Z,6.64
2019-01-02T13:04:33.142Z,6.69
2019-01-02T13:05:33.877Z,6.59
2019-01-02T13:06:33.098Z,6.58
2019-01-02T13:07:33.077Z,6.56
2019-01-02T13:08:33.055Z,6.61
2019-01-02T13:09:33.036Z,6.48
2019-01-02T13:10:33.011Z,6.46
2019-01-02T13:11:32.988Z,6.49
2019-01-02T13:12:32.969Z,6.43
2019-01-02T13:13:32.944Z,6.52
2019-01-02T13:14:32.927Z,6.43
2019-01-02T13:15:32.908Z,6.44
2019-01-02T13:16:32.880Z,6.56
2019-01-02T13:17:32.860Z,6.48
2019-01-02T13:18:32.840Z,6.52
2019-01-02T13:19:32.863Z,6.46